createdAt,value
2017-07-31T00:00:16.777Z,2.80
2017-07-31T00:02:44.233Z,4.33
2017-07-31T00:05:11.716Z,2.43
2017-07-31T00:07:39.174Z,2.30
2017-07-31T00:10:06.654Z,2.23
2017-07-31T00:12:34.882Z,2.50
2017-07-31T00:15:02.330Z,2.63
2017-07-31T00:17:29.809Z,2.60
2017-07-31T00:19:57.346Z,2.50
2017-07-31T00:22:24.818Z,2.23
2017-07-31T00:24:52.269Z,2.20
2017-07-31T00:27:19.750Z,2.77
2017-07-31T00:29:47.234Z,2.57
2017-07-31T00:32:14.699Z,2.33
2017-07-31T00:34:42.149Z,2.10
2017-07-31T00:37:09.621Z,2.30
2017-07-31T00:39:37.069Z,2.40
2017-07-31T00:42:04.574Z,2.83
2017-07-31T00:44:32.026Z,2.93
2017-07-31T00:46:59.470Z,2.50
2017-07-31T00:49:26.957Z,2.60
2017-07-31T00:51:54.410Z,2.60
2017-07-31T00:54:21.902Z,2.70
2017-07-31T00:56:49.353Z,3.37
2017-07-31T00:59:16.803Z,2.60
2017-07-31T01:01:44.288Z,2.40
2017-07-31T01:04:11.741Z,3.40
2017-07-31T01:06:39.189Z,2.70
2017-07-31T01:09:06.693Z,2.87
2017-07-31T01:11:34.147Z,2.80
2017-07-31T01:14:01.596Z,3.00
2017-07-31T01:16:29.094Z,3.60
2017-07-31T01:18:56.541Z,2.50
2017-07-31T01:21:23.992Z,3.37
2017-07-31T01:23:51.469Z,2.40
2017-07-31T01:26:18.913Z,3.10
2017-07-31T01:28:46.394Z,3.43
2017-07-31T01:31:13.862Z,2.80
2017-07-31T01:33:41.341Z,2.70
2017-07-31T01:36:08.788Z,2.53
2017-07-31T01:38:36.250Z,2.83
2017-07-31T01:41:03.746Z,3.20
2017-07-31T01:43:31.194Z,2.50
2017-07-31T01:45:58.657Z,2.70
2017-07-31T01:48:26.146Z,2.50
2017-07-31T01:50:53.606Z,2.43
2017-07-31T01:53:21.094Z,3.10
2017-07-31T01:55:48.666Z,3.37
2017-07-31T01:58:16.109Z,2.77
2017-07-31T02:00:43.568Z,2.83
2017-07-31T02:03:11.042Z,2.90
2017-07-31T02:05:38.506Z,2.90
2017-07-31T02:08:06.014Z,2.23
2017-07-31T02:10:33.469Z,3.00
2017-07-31T02:13:00.934Z,2.83
2017-07-31T02:15:28.415Z,2.40
2017-07-31T02:17:55.857Z,3.23
2017-07-31T02:20:23.796Z,2.70
2017-07-31T02:22:51.457Z,2.37
2017-07-31T02:25:18.907Z,2.47
2017-07-31T02:27:46.388Z,2.50
2017-07-31T02:30:13.878Z,2.73
2017-07-31T02:32:41.336Z,2.60
2017-07-31T02:35:08.827Z,2.87
2017-07-31T02:37:36.281Z,2.73
2017-07-31T02:40:03.735Z,2.43
2017-07-31T02:42:31.270Z,2.77
2017-07-31T02:44:58.750Z,2.77
2017-07-31T02:47:27.003Z,2.70
2017-07-31T02:49:54.450Z,2.10
2017-07-31T02:52:21.902Z,2.73
2017-07-31T02:54:49.396Z,3.33
2017-07-31T02:57:17.629Z,3.00
2017-07-31T02:59:45.069Z,2.60
2017-07-31T03:02:12.554Z,2.77
2017-07-31T03:04:40.003Z,2.73
2017-07-31T03:07:07.501Z,2.90
2017-07-31T03:09:35.003Z,3.07
2017-07-31T03:12:02.457Z,3.40
2017-07-31T03:14:29.932Z,3.07
2017-07-31T03:16:57.409Z,2.50
2017-07-31T03:19:24.852Z,2.80
2017-07-31T03:21:52.306Z,3.23
2017-07-31T03:24:19.795Z,2.30
2017-07-31T03:26:47.251Z,3.10
2017-07-31T03:29:14.704Z,2.67
2017-07-31T03:31:42.193Z,3.90
2017-07-31T03:34:09.655Z,3.63
2017-07-31T03:36:37.139Z,3.43
2017-07-31T03:39:04.622Z,2.90
2017-07-31T03:41:32.076Z,3.23
2017-07-31T03:43:59.564Z,3.17
2017-07-31T03:46:27.046Z,3.10
2017-07-31T03:48:55.269Z,2.80
2017-07-31T03:51:22.721Z,2.80
2017-07-31T03:53:50.201Z,2.47
2017-07-31T03:56:17.655Z,2.60
2017-07-31T03:58:45.129Z,3.10
2017-07-31T04:01:12.621Z,2.57
2017-07-31T04:03:40.843Z,2.77
2017-07-31T04:06:08.289Z,3.10
2017-07-31T04:08:35.866Z,2.53
2017-07-31T04:11:03.330Z,2.20
2017-07-31T04:13:30.793Z,2.57
2017-07-31T04:15:58.274Z,3.83
2017-07-31T04:18:25.733Z,2.33
2017-07-31T04:20:53.190Z,2.50
2017-07-31T04:23:20.668Z,2.33
2017-07-31T04:25:48.125Z,2.07
2017-07-31T04:28:15.605Z,2.80
2017-07-31T04:30:43.049Z,2.60
2017-07-31T04:33:10.513Z,3.30
2017-07-31T04:35:37.993Z,2.17
2017-07-31T04:38:05.554Z,3.03
2017-07-31T04:40:33.010Z,2.70
2017-07-31T04:43:00.501Z,3.17
2017-07-31T04:45:27.954Z,2.80
2017-07-31T04:47:55.410Z,2.37
2017-07-31T04:50:22.890Z,5.13
2017-07-31T04:52:50.346Z,2.67
2017-07-31T04:55:17.802Z,2.47
2017-07-31T04:57:45.281Z,2.73
2017-07-31T05:00:12.742Z,2.73
2017-07-31T05:02:40.193Z,2.57
2017-07-31T05:05:08.175Z,2.50
2017-07-31T05:07:35.675Z,2.20
2017-07-31T05:10:03.134Z,2.73
2017-07-31T05:12:30.583Z,2.77
2017-07-31T05:14:58.060Z,2.67
2017-07-31T05:17:25.510Z,2.70
2017-07-31T05:19:52.982Z,2.80
2017-07-31T05:22:20.473Z,2.03
2017-07-31T05:24:47.917Z,2.93
2017-07-31T05:27:15.366Z,3.03
2017-07-31T05:29:42.845Z,2.63
2017-07-31T05:32:10.294Z,2.43
2017-07-31T05:34:37.770Z,2.67
2017-07-31T05:37:05.349Z,3.10
2017-07-31T05:39:32.809Z,3.00
2017-07-31T05:42:00.285Z,2.77
2017-07-31T05:44:27.769Z,2.40
2017-07-31T05:46:55.251Z,3.20
2017-07-31T05:49:22.700Z,2.87
2017-07-31T05:51:50.149Z,2.70
2017-07-31T05:54:17.620Z,3.10
2017-07-31T05:56:45.073Z,2.60
2017-07-31T05:59:12.567Z,2.80
2017-07-31T06:01:40.022Z,2.53
2017-07-31T06:04:07.471Z,3.00
2017-07-31T06:06:34.957Z,2.80
2017-07-31T06:09:02.415Z,2.80
2017-07-31T06:11:29.862Z,2.60
2017-07-31T06:13:57.349Z,3.30
2017-07-31T06:16:24.798Z,2.97
2017-07-31T06:18:52.253Z,3.90
2017-07-31T06:21:19.742Z,3.37
2017-07-31T06:23:47.189Z,3.03
2017-07-31T06:26:14.637Z,2.90
2017-07-31T06:28:42.205Z,2.87
2017-07-31T06:31:09.648Z,2.90
2017-07-31T06:33:37.111Z,2.90
2017-07-31T06:36:04.586Z,3.00
2017-07-31T06:38:32.041Z,2.80
2017-07-31T06:40:59.529Z,3.00
2017-07-31T06:43:26.983Z,2.70
2017-07-31T06:45:54.445Z,2.83
2017-07-31T06:48:21.937Z,4.40
2017-07-31T06:50:49.387Z,2.40
2017-07-31T06:53:16.861Z,2.47
2017-07-31T06:55:44.361Z,4.17
2017-07-31T06:58:11.861Z,4.00
2017-07-31T07:00:39.314Z,3.47
2017-07-31T07:03:06.793Z,2.93
2017-07-31T07:05:34.258Z,2.93
2017-07-31T07:08:01.725Z,2.63
2017-07-31T07:10:29.209Z,2.63
2017-07-31T07:12:56.722Z,2.07
2017-07-31T07:15:24.169Z,1.70
2017-07-31T07:17:51.617Z,2.20
2017-07-31T07:20:19.093Z,1.70
2017-07-31T07:22:46.557Z,1.90
2017-07-31T07:25:14.037Z,2.00
2017-07-31T07:27:41.494Z,1.63
2017-07-31T07:30:08.948Z,1.63
2017-07-31T07:32:36.434Z,2.23
2017-07-31T07:35:03.899Z,1.60
2017-07-31T07:37:31.342Z,1.97
2017-07-31T07:39:58.841Z,2.77
2017-07-31T07:42:26.301Z,1.73
2017-07-31T07:44:54.048Z,1.87
2017-07-31T07:47:21.953Z,3.10
2017-07-31T07:49:49.521Z,2.30
2017-07-31T07:52:17.500Z,2.77
2017-07-31T07:54:45.038Z,2.30
2017-07-31T07:57:12.493Z,2.30
2017-07-31T07:59:40.527Z,2.37
2017-07-31T08:02:08.140Z,2.47
2017-07-31T08:04:36.001Z,2.10
2017-07-31T08:07:03.871Z,1.70
2017-07-31T08:09:31.774Z,2.00
2017-07-31T08:11:59.715Z,2.30
2017-07-31T08:14:27.385Z,2.70
2017-07-31T08:16:54.921Z,3.20
2017-07-31T08:19:22.528Z,2.47
2017-07-31T08:21:50.013Z,3.37
2017-07-31T08:26:44.949Z,2.30
2017-07-31T08:29:12.402Z,3.43
2017-07-31T08:31:40.368Z,3.20
2017-07-31T08:34:08.137Z,2.70
2017-07-31T08:36:36.106Z,4.53
2017-07-31T08:39:04.375Z,3.70
2017-07-31T08:41:31.874Z,2.87
2017-07-31T08:43:59.337Z,3.47
2017-07-31T08:46:26.807Z,3.13
2017-07-31T08:48:54.336Z,3.03
2017-07-31T08:51:21.822Z,2.60
2017-07-31T08:53:49.282Z,4.20
2017-07-31T08:56:16.750Z,3.03
2017-07-31T08:58:44.235Z,2.80
2017-07-31T09:01:11.722Z,2.50
2017-07-31T09:03:39.461Z,3.90
2017-07-31T09:06:06.942Z,3.60
2017-07-31T09:08:34.703Z,4.03
2017-07-31T09:11:02.341Z,4.20
2017-07-31T09:13:29.902Z,3.77
2017-07-31T09:15:57.545Z,3.50
2017-07-31T09:18:25.593Z,3.50
2017-07-31T09:20:53.092Z,3.47
2017-07-31T09:23:20.697Z,3.63
2017-07-31T09:25:48.365Z,6.27
2017-07-31T09:28:15.827Z,3.77
2017-07-31T09:30:43.885Z,4.47
2017-07-31T09:33:11.402Z,3.87
2017-07-31T09:35:38.865Z,3.70
2017-07-31T09:38:06.333Z,4.60
2017-07-31T09:40:33.851Z,3.77
2017-07-31T09:43:01.297Z,3.50
2017-07-31T09:45:28.776Z,4.40
2017-07-31T09:47:56.310Z,4.17
2017-07-31T09:50:24.293Z,5.53
2017-07-31T09:52:51.740Z,4.83
2017-07-31T09:55:19.263Z,4.60
2017-07-31T09:57:46.814Z,5.33
2017-07-31T10:00:14.554Z,4.60
2017-07-31T10:02:42.074Z,4.90
2017-07-31T10:05:09.664Z,4.60
2017-07-31T10:07:37.569Z,5.47
2017-07-31T10:10:05.198Z,4.97
2017-07-31T10:12:32.651Z,4.50
2017-07-31T10:15:00.127Z,5.57
2017-07-31T10:17:27.594Z,6.00
2017-07-31T10:19:55.058Z,4.80
2017-07-31T10:22:22.670Z,5.20
2017-07-31T10:24:50.197Z,5.03
2017-07-31T10:27:18.157Z,4.83
2017-07-31T10:29:45.629Z,5.93
2017-07-31T10:32:13.137Z,7.27
2017-07-31T10:34:40.598Z,6.80
2017-07-31T10:37:08.227Z,5.80
2017-07-31T10:39:35.963Z,5.60
2017-07-31T10:42:03.408Z,6.00
2017-07-31T10:44:30.984Z,5.30
2017-07-31T10:46:58.436Z,5.10
2017-07-31T10:49:25.885Z,4.33
2017-07-31T10:51:53.700Z,4.03
2017-07-31T10:54:21.592Z,3.70
2017-07-31T10:56:49.309Z,4.10
2017-07-31T10:59:16.759Z,3.17
2017-07-31T11:01:44.233Z,3.37
2017-07-31T11:04:11.913Z,3.80
2017-07-31T11:06:39.409Z,3.77
2017-07-31T11:09:07.096Z,2.93
2017-07-31T11:11:35.123Z,3.37
2017-07-31T11:14:02.621Z,4.07
2017-07-31T11:16:30.361Z,3.13
2017-07-31T11:18:58.113Z,3.00
2017-07-31T11:21:25.828Z,2.47
2017-07-31T11:23:54.487Z,2.57
2017-07-31T11:26:22.154Z,3.07
2017-07-31T11:28:49.862Z,2.60
2017-07-31T11:31:17.561Z,4.60
2017-07-31T11:33:45.224Z,2.40
2017-07-31T11:36:12.787Z,1.83
2017-07-31T11:38:40.507Z,2.00
2017-07-31T11:41:08.224Z,1.73
2017-07-31T11:43:35.750Z,2.47
2017-07-31T11:46:04.113Z,1.97
2017-07-31T11:48:31.851Z,2.20
2017-07-31T11:50:59.445Z,2.30
2017-07-31T11:53:26.899Z,2.60
2017-07-31T11:55:54.373Z,2.67
2017-07-31T11:58:21.830Z,1.77
2017-07-31T12:00:49.325Z,2.70
2017-07-31T12:03:16.798Z,2.30
2017-07-31T12:05:44.300Z,1.90
2017-07-31T12:08:11.753Z,1.70
2017-07-31T12:10:39.238Z,1.67
2017-07-31T12:13:06.710Z,1.80
2017-07-31T12:15:34.180Z,2.50
2017-07-31T12:18:01.653Z,2.60
2017-07-31T12:20:29.126Z,2.73
2017-07-31T12:22:56.646Z,2.47
2017-07-31T12:25:24.092Z,2.90
2017-07-31T12:27:51.587Z,2.40
2017-07-31T12:30:19.106Z,2.43
2017-07-31T12:32:46.599Z,2.20
2017-07-31T12:35:14.054Z,2.63
2017-07-31T12:37:41.525Z,1.90
2017-07-31T12:40:08.979Z,2.27
2017-07-31T12:42:36.433Z,2.50
2017-07-31T12:45:03.914Z,1.97
2017-07-31T12:47:31.423Z,2.37
2017-07-31T12:49:58.989Z,2.70
2017-07-31T12:52:26.522Z,2.10
2017-07-31T12:54:54.075Z,1.60
2017-07-31T12:57:24.703Z,2.20
2017-07-31T12:59:56.547Z,2.00
2017-07-31T13:02:26.360Z,1.97
2017-07-31T13:04:53.972Z,1.83
2017-07-31T13:07:21.517Z,1.80
2017-07-31T13:09:49.384Z,1.70
2017-07-31T13:12:16.862Z,1.87
2017-07-31T13:14:44.349Z,1.50
2017-07-31T13:17:11.794Z,1.50
2017-07-31T13:19:39.274Z,1.40
2017-07-31T13:22:06.772Z,1.30
2017-07-31T13:24:34.250Z,1.07
2017-07-31T13:27:01.707Z,1.50
2017-07-31T13:29:29.211Z,1.00
2017-07-31T13:31:56.842Z,1.67
2017-07-31T13:34:24.289Z,1.30
2017-07-31T13:36:51.761Z,1.27
2017-07-31T13:39:19.226Z,1.40
2017-07-31T13:41:46.691Z,1.57
2017-07-31T13:44:14.186Z,2.20
2017-07-31T13:46:41.690Z,1.80
2017-07-31T13:49:09.169Z,2.10
2017-07-31T13:51:36.634Z,2.00
2017-07-31T13:54:04.130Z,1.87
2017-07-31T13:56:31.574Z,1.30
2017-07-31T13:58:59.042Z,1.83
2017-07-31T14:01:26.529Z,1.30
2017-07-31T14:03:54.001Z,1.70
2017-07-31T14:06:21.475Z,1.63
2017-07-31T14:08:48.923Z,2.27
2017-07-31T14:11:16.405Z,1.90
2017-07-31T14:13:43.858Z,1.10
2017-07-31T14:16:11.322Z,1.40
2017-07-31T14:18:38.813Z,1.17
2017-07-31T14:21:06.327Z,1.40
2017-07-31T14:23:33.817Z,1.20
2017-07-31T14:26:01.290Z,1.00
2017-07-31T14:28:28.738Z,1.20
2017-07-31T14:30:56.214Z,1.90
2017-07-31T14:33:23.732Z,2.10
2017-07-31T14:35:51.260Z,1.80
2017-07-31T14:38:18.734Z,1.80
2017-07-31T14:40:46.189Z,2.10
2017-07-31T14:43:13.677Z,2.50
2017-07-31T14:45:41.158Z,2.30
2017-07-31T14:48:08.620Z,1.80
2017-07-31T14:50:36.096Z,1.80
2017-07-31T14:53:03.545Z,1.90
2017-07-31T14:55:31.021Z,1.80
2017-07-31T14:57:58.517Z,1.40
2017-07-31T15:00:25.981Z,1.60
2017-07-31T15:02:53.482Z,1.50
2017-07-31T15:05:20.922Z,1.60
2017-07-31T15:07:48.382Z,1.20
2017-07-31T15:10:15.877Z,1.40
2017-07-31T15:12:43.330Z,1.40
2017-07-31T15:15:10.785Z,1.30
2017-07-31T15:17:38.282Z,2.00
2017-07-31T15:20:05.767Z,1.00
2017-07-31T15:22:33.223Z,1.50
2017-07-31T15:25:00.698Z,1.60
2017-07-31T15:27:28.180Z,1.80
2017-07-31T15:29:55.666Z,1.50
2017-07-31T15:32:23.113Z,1.27
2017-07-31T15:34:50.965Z,1.50
2017-07-31T15:37:18.626Z,1.23
2017-07-31T15:39:46.142Z,1.60
2017-07-31T15:42:13.716Z,1.87
2017-07-31T15:44:41.321Z,1.30
2017-07-31T15:47:08.798Z,1.30
2017-07-31T15:49:36.286Z,1.13
2017-07-31T15:52:03.764Z,1.10
2017-07-31T15:54:31.224Z,1.20
2017-07-31T15:56:59.193Z,1.10
2017-07-31T15:59:26.827Z,1.13
2017-07-31T16:01:54.365Z,1.13
2017-07-31T16:04:21.889Z,1.20
2017-07-31T16:06:49.337Z,1.13
2017-07-31T16:09:16.909Z,2.80
2017-07-31T16:11:44.385Z,1.43
2017-07-31T16:14:11.835Z,1.13
2017-07-31T16:16:39.295Z,1.97
2017-07-31T16:19:06.770Z,1.20
2017-07-31T16:21:34.226Z,1.10
2017-07-31T16:24:01.695Z,1.40
2017-07-31T16:26:29.209Z,1.00
2017-07-31T16:28:56.656Z,1.30
2017-07-31T16:31:24.135Z,1.00
2017-07-31T16:33:51.591Z,1.00
2017-07-31T16:36:19.105Z,1.50
2017-07-31T16:38:58.830Z,1.03
2017-07-31T16:41:47.178Z,1.23
2017-07-31T16:44:26.403Z,1.33
2017-07-31T16:46:54.412Z,1.50
2017-07-31T16:49:22.250Z,1.17
2017-07-31T16:51:49.895Z,1.70
2017-07-31T16:54:17.532Z,1.20
2017-07-31T16:56:44.982Z,1.20
2017-07-31T16:59:12.445Z,1.37
2017-07-31T17:01:39.917Z,1.57
2017-07-31T17:04:07.359Z,1.13
2017-07-31T17:06:34.878Z,1.60
2017-07-31T17:09:02.605Z,1.57
2017-07-31T17:11:30.089Z,1.20
2017-07-31T17:13:57.863Z,0.93
2017-07-31T17:16:25.428Z,1.00
2017-07-31T17:18:53.131Z,1.50
2017-07-31T17:21:20.732Z,1.80
2017-07-31T17:23:48.489Z,1.37
2017-07-31T17:26:16.187Z,1.40
2017-07-31T17:28:44.018Z,1.80
2017-07-31T17:31:11.637Z,1.27
2017-07-31T17:33:39.257Z,1.60
2017-07-31T17:36:07.091Z,1.20
2017-07-31T17:38:34.771Z,1.37
2017-07-31T17:41:02.413Z,1.20
2017-07-31T17:43:29.983Z,1.50
2017-07-31T17:45:57.517Z,1.33
2017-07-31T17:48:25.800Z,1.33
2017-07-31T17:50:53.299Z,1.23
2017-07-31T17:53:20.777Z,1.50
2017-07-31T17:55:48.250Z,1.50
2017-07-31T17:58:15.786Z,1.60
2017-07-31T18:00:43.294Z,1.27
2017-07-31T18:03:10.794Z,1.10
2017-07-31T18:05:38.241Z,1.20
2017-07-31T18:08:06.522Z,1.07
2017-07-31T18:10:34.005Z,1.80
2017-07-31T18:13:01.445Z,1.77
2017-07-31T18:15:28.909Z,1.60
2017-07-31T18:17:56.445Z,1.70
2017-07-31T18:20:23.904Z,1.37
2017-07-31T18:22:51.402Z,1.30
2017-07-31T18:25:19.204Z,1.57
2017-07-31T18:27:46.713Z,1.60
2017-07-31T18:30:14.189Z,1.77
2017-07-31T18:32:41.641Z,2.30
2017-07-31T18:35:09.090Z,1.50
2017-07-31T18:37:36.602Z,1.30
2017-07-31T18:40:04.068Z,1.30
2017-07-31T18:42:31.520Z,1.23
2017-07-31T18:44:58.994Z,1.43
2017-07-31T18:47:26.469Z,1.47
2017-07-31T18:49:53.965Z,1.67
2017-07-31T18:52:21.434Z,1.67
2017-07-31T18:54:48.907Z,1.53
2017-07-31T18:57:16.448Z,1.70
2017-07-31T18:59:43.966Z,1.30
2017-07-31T19:02:11.413Z,1.40
2017-07-31T19:04:38.890Z,1.27
2017-07-31T19:07:06.350Z,1.17
2017-07-31T19:09:33.824Z,1.63
2017-07-31T19:12:01.273Z,2.07
2017-07-31T19:14:28.729Z,1.43
2017-07-31T19:16:56.210Z,1.40
2017-07-31T19:19:23.662Z,1.67
2017-07-31T19:21:51.142Z,1.40
2017-07-31T19:24:18.774Z,1.30
2017-07-31T19:26:46.258Z,2.10
2017-07-31T19:29:13.736Z,1.80
2017-07-31T19:31:41.494Z,1.47
2017-07-31T19:34:08.951Z,1.77
2017-07-31T19:36:36.505Z,1.80
2017-07-31T19:39:04.042Z,1.50
2017-07-31T19:41:31.538Z,1.90
2017-07-31T19:43:59.054Z,1.90
2017-07-31T19:46:26.619Z,1.60
2017-07-31T19:48:54.097Z,1.50
2017-07-31T19:51:21.578Z,1.77
2017-07-31T19:53:49.029Z,1.97
2017-07-31T19:56:16.562Z,1.90
2017-07-31T19:58:44.043Z,1.40
2017-07-31T20:01:11.509Z,1.57
2017-07-31T20:03:39.090Z,1.50
2017-07-31T20:06:06.534Z,1.73
2017-07-31T20:08:34.022Z,1.67
2017-07-31T20:11:01.469Z,1.70
2017-07-31T20:13:28.930Z,2.00
2017-07-31T20:15:56.442Z,1.80
2017-07-31T20:18:23.915Z,1.77
2017-07-31T20:20:51.540Z,1.90
2017-07-31T20:23:19.082Z,1.07
2017-07-31T20:25:46.557Z,1.73
2017-07-31T20:28:14.043Z,1.53
2017-07-31T20:30:41.705Z,1.77
2017-07-31T20:33:09.162Z,1.50
2017-07-31T20:35:36.631Z,1.87
2017-07-31T20:38:04.101Z,1.40
2017-07-31T20:40:31.573Z,1.30
2017-07-31T20:42:59.033Z,1.63
2017-07-31T20:45:26.530Z,1.53
2017-07-31T20:47:53.991Z,2.03
2017-07-31T20:50:21.437Z,1.93
2017-07-31T20:52:48.934Z,1.60
2017-07-31T20:55:16.394Z,1.50
2017-07-31T20:57:43.867Z,1.77
2017-07-31T21:00:11.338Z,1.93
2017-07-31T21:02:38.786Z,1.90
2017-07-31T21:05:06.285Z,1.70
2017-07-31T21:07:33.742Z,1.50
2017-07-31T21:10:01.190Z,1.67
2017-07-31T21:12:28.695Z,1.60
2017-07-31T21:14:56.159Z,2.10
2017-07-31T21:17:24.389Z,1.60
2017-07-31T21:19:51.992Z,1.60
2017-07-31T21:22:19.451Z,1.67
2017-07-31T21:24:46.916Z,1.90
2017-07-31T21:27:14.394Z,2.30
2017-07-31T21:29:41.874Z,1.70
2017-07-31T21:32:09.325Z,1.83
2017-07-31T21:34:36.812Z,2.10
2017-07-31T21:37:04.261Z,1.87
2017-07-31T21:39:31.725Z,1.50
2017-07-31T21:41:59.239Z,1.43
2017-07-31T21:44:27.461Z,1.90
2017-07-31T21:46:54.956Z,2.10
2017-07-31T21:49:22.475Z,1.90
2017-07-31T21:51:50.010Z,2.07
2017-07-31T21:54:17.462Z,2.37
2017-07-31T21:56:44.925Z,2.40
2017-07-31T21:59:12.405Z,1.70
2017-07-31T22:01:39.870Z,2.20
2017-07-31T22:04:07.329Z,2.10
2017-07-31T22:06:34.807Z,1.97
2017-07-31T22:09:02.270Z,1.70
2017-07-31T22:11:29.769Z,1.87
2017-07-31T22:13:57.231Z,2.47
2017-07-31T22:16:40.414Z,3.03
2017-07-31T22:19:07.888Z,2.87
2017-07-31T22:21:41.094Z,2.60
2017-07-31T22:24:09.302Z,2.13
2017-07-31T22:26:36.772Z,2.50
2017-07-31T22:29:04.262Z,2.03
2017-07-31T22:31:31.724Z,1.67
2017-07-31T22:33:59.177Z,3.27
2017-07-31T22:36:26.649Z,2.23
2017-07-31T22:38:54.986Z,2.30
2017-07-31T22:41:22.465Z,2.23
2017-07-31T22:43:49.929Z,2.37
2017-07-31T22:46:17.399Z,2.70
2017-07-31T22:48:44.871Z,1.93
2017-07-31T22:51:12.375Z,1.80
2017-07-31T22:53:39.830Z,3.17
2017-07-31T22:56:07.280Z,3.30
2017-07-31T22:58:34.858Z,2.60
2017-07-31T23:01:02.357Z,2.57
2017-07-31T23:03:29.810Z,2.67
2017-07-31T23:05:57.257Z,2.60
2017-07-31T23:08:24.733Z,2.30
2017-07-31T23:10:52.189Z,3.37
2017-07-31T23:13:19.641Z,2.60
2017-07-31T23:15:47.107Z,3.17
2017-07-31T23:18:14.586Z,3.03
2017-07-31T23:20:42.063Z,2.53
2017-07-31T23:23:09.509Z,2.60
2017-07-31T23:25:36.962Z,2.40
2017-07-31T23:28:04.448Z,2.60
2017-07-31T23:30:31.912Z,3.50
2017-07-31T23:32:59.393Z,3.50
2017-07-31T23:35:26.865Z,3.50
2017-07-31T23:37:54.331Z,3.87
2017-07-31T23:40:22.577Z,3.97
2017-07-31T23:42:50.025Z,4.07
2017-07-31T23:45:17.474Z,3.27
2017-07-31T23:47:44.954Z,3.43
2017-07-31T23:50:12.394Z,3.90
2017-07-31T23:52:39.869Z,3.90
2017-07-31T23:55:07.314Z,4.57
2017-07-31T23:57:34.793Z,3.63
